sensor_id;sensor_type;location;lat;lon;timestamp;P1;durP1;ratioP1;P2;durP2;ratioP2
50219;SDS011;36110;51.536;7.562;2023-06-22T00:00:50;5.20;;;4.70;;
50219;SDS011;36110;51.536;7.562;2023-06-22T00:03:17;4.80;;;4.03;;
50219;SDS011;36110;51.536;7.562;2023-06-22T00:05:43;5.60;;;4.93;;
50219;SDS011;36110;51.536;7.562;2023-06-22T00:08:08;7.60;;;5.45;;
50219;SDS011;36110;51.536;7.562;2023-06-22T00:10:34;7.03;;;5.13;;
50219;SDS011;36110;51.536;7.562;2023-06-22T00:15:27;6.25;;;5.40;;
50219;SDS011;36110;51.536;7.562;2023-06-22T00:17:53;9.27;;;5.28;;
50219;SDS011;36110;51.536;7.562;2023-06-22T00:20:18;7.22;;;5.80;;
50219;SDS011;36110;51.536;7.562;2023-06-22T00:22:43;8.40;;;6.10;;
50219;SDS011;36110;51.536;7.562;2023-06-22T00:25:09;8.02;;;6.53;;
50219;SDS011;36110;51.536;7.562;2023-06-22T00:27:35;9.48;;;6.63;;
50219;SDS011;36110;51.536;7.562;2023-06-22T00:30:01;6.28;;;5.63;;
50219;SDS011;36110;51.536;7.562;2023-06-22T00:32:27;7.22;;;5.40;;
50219;SDS011;36110;51.536;7.562;2023-06-22T00:34:52;5.47;;;4.95;;
50219;SDS011;36110;51.536;7.562;2023-06-22T00:37:18;6.55;;;4.90;;
50219;SDS011;36110;51.536;7.562;2023-06-22T00:39:43;7.38;;;4.95;;
50219;SDS011;36110;51.536;7.562;2023-06-22T00:42:09;6.43;;;4.97;;
50219;SDS011;36110;51.536;7.562;2023-06-22T00:44:37;5.70;;;4.65;;
50219;SDS011;36110;51.536;7.562;2023-06-22T00:47:02;7.75;;;4.93;;
50219;SDS011;36110;51.536;7.562;2023-06-22T00:49:28;6.72;;;4.72;;
50219;SDS011;36110;51.536;7.562;2023-06-22T00:51:54;9.80;;;4.30;;
50219;SDS011;36110;51.536;7.562;2023-06-22T00:54:20;6.53;;;5.00;;
50219;SDS011;36110;51.536;7.562;2023-06-22T00:56:50;4.85;;;4.35;;
50219;SDS011;36110;51.536;7.562;2023-06-22T00:59:20;7.22;;;4.00;;
50219;SDS011;36110;51.536;7.562;2023-06-22T01:01:46;6.60;;;4.72;;
50219;SDS011;36110;51.536;7.562;2023-06-22T01:04:11;5.38;;;4.70;;
50219;SDS011;36110;51.536;7.562;2023-06-22T01:06:38;7.07;;;4.78;;
50219;SDS011;36110;51.536;7.562;2023-06-22T01:09:19;7.30;;;4.78;;
50219;SDS011;36110;51.536;7.562;2023-06-22T01:11:52;7.05;;;4.65;;
50219;SDS011;36110;51.536;7.562;2023-06-22T01:14:24;7.90;;;4.85;;
50219;SDS011;36110;51.536;7.562;2023-06-22T01:16:53;6.80;;;4.65;;
50219;SDS011;36110;51.536;7.562;2023-06-22T01:19:26;6.90;;;4.68;;
50219;SDS011;36110;51.536;7.562;2023-06-22T01:22:00;6.45;;;5.15;;
50219;SDS011;36110;51.536;7.562;2023-06-22T01:24:33;8.55;;;4.82;;
50219;SDS011;36110;51.536;7.562;2023-06-22T01:30:06;8.27;;;4.97;;
50219;SDS011;36110;51.536;7.562;2023-06-22T01:32:32;7.40;;;4.60;;
50219;SDS011;36110;51.536;7.562;2023-06-22T01:35:00;7.75;;;4.78;;
50219;SDS011;36110;51.536;7.562;2023-06-22T01:37:27;6.05;;;4.22;;
50219;SDS011;36110;51.536;7.562;2023-06-22T01:39:53;8.70;;;4.65;;
50219;SDS011;36110;51.536;7.562;2023-06-22T01:42:19;6.40;;;4.10;;
50219;SDS011;36110;51.536;7.562;2023-06-22T01:44:44;5.57;;;4.90;;
50219;SDS011;36110;51.536;7.562;2023-06-22T01:47:10;7.95;;;4.63;;
50219;SDS011;36110;51.536;7.562;2023-06-22T01:49:36;6.03;;;4.10;;
50219;SDS011;36110;51.536;7.562;2023-06-22T01:52:01;7.00;;;4.55;;
50219;SDS011;36110;51.536;7.562;2023-06-22T01:54:27;6.05;;;4.32;;
50219;SDS011;36110;51.536;7.562;2023-06-22T01:56:53;6.18;;;4.28;;
50219;SDS011;36110;51.536;7.562;2023-06-22T02:01:53;6.65;;;4.57;;
50219;SDS011;36110;51.536;7.562;2023-06-22T02:04:22;7.50;;;4.93;;
50219;SDS011;36110;51.536;7.562;2023-06-22T02:06:51;6.18;;;5.25;;
50219;SDS011;36110;51.536;7.562;2023-06-22T02:09:20;5.10;;;4.60;;
50219;SDS011;36110;51.536;7.562;2023-06-22T02:11:47;7.03;;;5.30;;
50219;SDS011;36110;51.536;7.562;2023-06-22T02:14:14;5.63;;;4.60;;
50219;SDS011;36110;51.536;7.562;2023-06-22T02:16:40;9.80;;;6.35;;
50219;SDS011;36110;51.536;7.562;2023-06-22T02:19:05;7.00;;;5.25;;
50219;SDS011;36110;51.536;7.562;2023-06-22T02:21:31;8.43;;;5.90;;
50219;SDS011;36110;51.536;7.562;2023-06-22T02:23:57;5.68;;;5.07;;
50219;SDS011;36110;51.536;7.562;2023-06-22T02:26:24;6.88;;;5.35;;
50219;SDS011;36110;51.536;7.562;2023-06-22T02:28:50;7.97;;;5.78;;
50219;SDS011;36110;51.536;7.562;2023-06-22T02:31:15;7.07;;;5.50;;
50219;SDS011;36110;51.536;7.562;2023-06-22T02:33:41;7.50;;;5.65;;
50219;SDS011;36110;51.536;7.562;2023-06-22T02:36:06;7.00;;;5.95;;
50219;SDS011;36110;51.536;7.562;2023-06-22T02:38:34;11.23;;;5.85;;
50219;SDS011;36110;51.536;7.562;2023-06-22T02:41:01;8.57;;;6.20;;
50219;SDS011;36110;51.536;7.562;2023-06-22T02:43:26;8.88;;;5.88;;
50219;SDS011;36110;51.536;7.562;2023-06-22T02:45:52;13.23;;;5.97;;
50219;SDS011;36110;51.536;7.562;2023-06-22T02:48:17;9.38;;;5.60;;
50219;SDS011;36110;51.536;7.562;2023-06-22T02:50:42;9.13;;;5.90;;
50219;SDS011;36110;51.536;7.562;2023-06-22T02:53:07;11.68;;;6.20;;
50219;SDS011;36110;51.536;7.562;2023-06-22T02:55:33;10.10;;;4.93;;
50219;SDS011;36110;51.536;7.562;2023-06-22T02:57:58;7.57;;;5.28;;
50219;SDS011;36110;51.536;7.562;2023-06-22T03:00:24;8.52;;;5.25;;
50219;SDS011;36110;51.536;7.562;2023-06-22T03:02:55;8.35;;;5.38;;
50219;SDS011;36110;51.536;7.562;2023-06-22T03:05:21;7.30;;;5.35;;
50219;SDS011;36110;51.536;7.562;2023-06-22T03:07:46;9.32;;;5.40;;
50219;SDS011;36110;51.536;7.562;2023-06-22T03:10:12;6.60;;;5.32;;
50219;SDS011;36110;51.536;7.562;2023-06-22T03:12:38;10.98;;;5.85;;
50219;SDS011;36110;51.536;7.562;2023-06-22T03:15:07;8.15;;;5.80;;
50219;SDS011;36110;51.536;7.562;2023-06-22T03:17:35;9.52;;;6.38;;
50219;SDS011;36110;51.536;7.562;2023-06-22T03:20:01;11.98;;;8.45;;
50219;SDS011;36110;51.536;7.562;2023-06-22T03:22:39;8.90;;;6.72;;
50219;SDS011;36110;51.536;7.562;2023-06-22T03:25:05;8.45;;;7.38;;
50219;SDS011;36110;51.536;7.562;2023-06-22T03:27:39;8.38;;;7.40;;
50219;SDS011;36110;51.536;7.562;2023-06-22T03:30:05;9.05;;;6.50;;
50219;SDS011;36110;51.536;7.562;2023-06-22T03:32:32;7.30;;;6.55;;
50219;SDS011;36110;51.536;7.562;2023-06-22T03:34:57;8.10;;;6.25;;
50219;SDS011;36110;51.536;7.562;2023-06-22T03:37:23;8.40;;;6.78;;
50219;SDS011;36110;51.536;7.562;2023-06-22T03:39:52;8.02;;;6.57;;
50219;SDS011;36110;51.536;7.562;2023-06-22T03:42:18;11.07;;;6.68;;
50219;SDS011;36110;51.536;7.562;2023-06-22T03:44:43;10.07;;;6.35;;
50219;SDS011;36110;51.536;7.562;2023-06-22T03:47:08;9.10;;;6.75;;
50219;SDS011;36110;51.536;7.562;2023-06-22T03:49:34;8.52;;;6.95;;
50219;SDS011;36110;51.536;7.562;2023-06-22T03:52:00;9.48;;;6.40;;
50219;SDS011;36110;51.536;7.562;2023-06-22T03:54:27;9.35;;;6.57;;
50219;SDS011;36110;51.536;7.562;2023-06-22T03:56:56;12.52;;;7.10;;
50219;SDS011;36110;51.536;7.562;2023-06-22T03:59:22;9.45;;;6.70;;
50219;SDS011;36110;51.536;7.562;2023-06-22T04:01:48;8.50;;;6.70;;
50219;SDS011;36110;51.536;7.562;2023-06-22T04:04:13;9.93;;;6.70;;
50219;SDS011;36110;51.536;7.562;2023-06-22T04:06:39;7.88;;;6.50;;
50219;SDS011;36110;51.536;7.562;2023-06-22T04:09:05;9.07;;;7.53;;
50219;SDS011;36110;51.536;7.562;2023-06-22T04:11:30;12.43;;;8.85;;
50219;SDS011;36110;51.536;7.562;2023-06-22T04:13:56;13.10;;;9.63;;
50219;SDS011;36110;51.536;7.562;2023-06-22T04:16:21;7.88;;;6.93;;
50219;SDS011;36110;51.536;7.562;2023-06-22T04:18:46;14.23;;;9.02;;
50219;SDS011;36110;51.536;7.562;2023-06-22T04:21:12;12.25;;;9.48;;
50219;SDS011;36110;51.536;7.562;2023-06-22T04:23:38;10.57;;;8.68;;
50219;SDS011;36110;51.536;7.562;2023-06-22T04:26:03;12.43;;;9.60;;
50219;SDS011;36110;51.536;7.562;2023-06-22T04:28:28;13.32;;;9.40;;
50219;SDS011;36110;51.536;7.562;2023-06-22T04:30:54;12.52;;;10.77;;
50219;SDS011;36110;51.536;7.562;2023-06-22T04:33:23;12.38;;;10.23;;
50219;SDS011;36110;51.536;7.562;2023-06-22T04:35:48;12.10;;;9.70;;
50219;SDS011;36110;51.536;7.562;2023-06-22T04:38:13;13.73;;;9.68;;
50219;SDS011;36110;51.536;7.562;2023-06-22T04:40:39;12.63;;;9.73;;
50219;SDS011;36110;51.536;7.562;2023-06-22T04:43:05;10.25;;;8.50;;
50219;SDS011;36110;51.536;7.562;2023-06-22T04:45:31;9.13;;;8.02;;
50219;SDS011;36110;51.536;7.562;2023-06-22T04:47:57;12.50;;;8.68;;
50219;SDS011;36110;51.536;7.562;2023-06-22T04:50:23;10.63;;;8.23;;
50219;SDS011;36110;51.536;7.562;2023-06-22T04:52:48;12.75;;;9.65;;
50219;SDS011;36110;51.536;7.562;2023-06-22T04:55:14;12.65;;;10.35;;
50219;SDS011;36110;51.536;7.562;2023-06-22T04:57:46;12.52;;;10.50;;
50219;SDS011;36110;51.536;7.562;2023-06-22T05:00:19;15.45;;;10.20;;
50219;SDS011;36110;51.536;7.562;2023-06-22T05:02:48;11.63;;;9.57;;
50219;SDS011;36110;51.536;7.562;2023-06-22T05:05:13;13.50;;;9.15;;
50219;SDS011;36110;51.536;7.562;2023-06-22T05:07:39;12.68;;;10.40;;
50219;SDS011;36110;51.536;7.562;2023-06-22T05:10:08;16.30;;;9.30;;
50219;SDS011;36110;51.536;7.562;2023-06-22T05:12:35;13.20;;;10.55;;
50219;SDS011;36110;51.536;7.562;2023-06-22T05:15:00;21.05;;;10.90;;
50219;SDS011;36110;51.536;7.562;2023-06-22T05:17:26;14.40;;;10.98;;
50219;SDS011;36110;51.536;7.562;2023-06-22T05:19:52;15.18;;;10.35;;
50219;SDS011;36110;51.536;7.562;2023-06-22T05:22:17;14.15;;;9.30;;
50219;SDS011;36110;51.536;7.562;2023-06-22T05:24:42;18.05;;;10.88;;
50219;SDS011;36110;51.536;7.562;2023-06-22T05:27:08;14.80;;;11.38;;
50219;SDS011;36110;51.536;7.562;2023-06-22T05:29:34;9.35;;;7.07;;
50219;SDS011;36110;51.536;7.562;2023-06-22T05:32:00;15.40;;;9.27;;
50219;SDS011;36110;51.536;7.562;2023-06-22T05:34:25;21.90;;;11.23;;
50219;SDS011;36110;51.536;7.562;2023-06-22T05:36:51;15.90;;;9.07;;
50219;SDS011;36110;51.536;7.562;2023-06-22T05:39:16;20.23;;;10.40;;
50219;SDS011;36110;51.536;7.562;2023-06-22T05:41:42;15.48;;;9.43;;
50219;SDS011;36110;51.536;7.562;2023-06-22T05:44:10;23.65;;;10.27;;
50219;SDS011;36110;51.536;7.562;2023-06-22T05:46:35;15.52;;;9.30;;
50219;SDS011;36110;51.536;7.562;2023-06-22T05:49:01;14.93;;;8.45;;
50219;SDS011;36110;51.536;7.562;2023-06-22T05:51:26;13.05;;;7.88;;
50219;SDS011;36110;51.536;7.562;2023-06-22T05:53:52;16.58;;;10.60;;
50219;SDS011;36110;51.536;7.562;2023-06-22T05:56:17;10.07;;;6.60;;
50219;SDS011;36110;51.536;7.562;2023-06-22T05:58:42;12.02;;;7.15;;
50219;SDS011;36110;51.536;7.562;2023-06-22T06:01:08;16.67;;;9.82;;
50219;SDS011;36110;51.536;7.562;2023-06-22T06:03:33;14.60;;;11.00;;
50219;SDS011;36110;51.536;7.562;2023-06-22T06:05:58;14.38;;;10.88;;
50219;SDS011;36110;51.536;7.562;2023-06-22T06:08:24;12.75;;;10.10;;
50219;SDS011;36110;51.536;7.562;2023-06-22T06:10:50;13.02;;;10.30;;
50219;SDS011;36110;51.536;7.562;2023-06-22T06:13:17;9.65;;;7.22;;
50219;SDS011;36110;51.536;7.562;2023-06-22T06:15:43;13.68;;;11.32;;
50219;SDS011;36110;51.536;7.562;2023-06-22T06:18:08;11.60;;;7.32;;
50219;SDS011;36110;51.536;7.562;2023-06-22T06:20:34;16.42;;;10.63;;
50219;SDS011;36110;51.536;7.562;2023-06-22T06:22:59;14.48;;;10.95;;
50219;SDS011;36110;51.536;7.562;2023-06-22T06:25:24;11.57;;;10.38;;
50219;SDS011;36110;51.536;7.562;2023-06-22T06:27:51;15.63;;;11.45;;
50219;SDS011;36110;51.536;7.562;2023-06-22T06:30:19;12.45;;;10.77;;
50219;SDS011;36110;51.536;7.562;2023-06-22T06:32:45;13.30;;;10.68;;
50219;SDS011;36110;51.536;7.562;2023-06-22T06:35:11;7.85;;;7.05;;
50219;SDS011;36110;51.536;7.562;2023-06-22T06:37:37;12.50;;;9.70;;
50219;SDS011;36110;51.536;7.562;2023-06-22T06:40:04;18.48;;;12.23;;
50219;SDS011;36110;51.536;7.562;2023-06-22T06:42:33;9.98;;;5.90;;
50219;SDS011;36110;51.536;7.562;2023-06-22T06:44:59;14.57;;;11.10;;
50219;SDS011;36110;51.536;7.562;2023-06-22T06:47:24;19.05;;;13.30;;
50219;SDS011;36110;51.536;7.562;2023-06-22T06:49:49;13.32;;;10.32;;
50219;SDS011;36110;51.536;7.562;2023-06-22T06:52:15;19.17;;;13.55;;
50219;SDS011;36110;51.536;7.562;2023-06-22T06:54:40;5.80;;;4.07;;
50219;SDS011;36110;51.536;7.562;2023-06-22T06:57:07;10.00;;;5.75;;
50219;SDS011;36110;51.536;7.562;2023-06-22T06:59:32;15.07;;;12.88;;
50219;SDS011;36110;51.536;7.562;2023-06-22T07:01:57;14.13;;;12.70;;
50219;SDS011;36110;51.536;7.562;2023-06-22T07:04:23;16.15;;;14.40;;
50219;SDS011;36110;51.536;7.562;2023-06-22T07:06:48;17.55;;;13.10;;
50219;SDS011;36110;51.536;7.562;2023-06-22T07:09:13;4.95;;;3.70;;
50219;SDS011;36110;51.536;7.562;2023-06-22T07:11:38;9.57;;;7.50;;
50219;SDS011;36110;51.536;7.562;2023-06-22T07:14:04;19.50;;;14.20;;
50219;SDS011;36110;51.536;7.562;2023-06-22T07:16:29;13.80;;;12.43;;
50219;SDS011;36110;51.536;7.562;2023-06-22T07:18:56;14.57;;;10.88;;
50219;SDS011;36110;51.536;7.562;2023-06-22T07:21:21;15.68;;;14.05;;
50219;SDS011;36110;51.536;7.562;2023-06-22T07:23:47;15.55;;;13.63;;
50219;SDS011;36110;51.536;7.562;2023-06-22T07:26:12;6.32;;;5.72;;
50219;SDS011;36110;51.536;7.562;2023-06-22T07:28:38;15.50;;;12.80;;
50219;SDS011;36110;51.536;7.562;2023-06-22T07:31:05;10.65;;;8.70;;
50219;SDS011;36110;51.536;7.562;2023-06-22T07:33:31;6.50;;;5.68;;
50219;SDS011;36110;51.536;7.562;2023-06-22T07:35:56;5.63;;;5.00;;
50219;SDS011;36110;51.536;7.562;2023-06-22T07:38:21;12.13;;;10.75;;
50219;SDS011;36110;51.536;7.562;2023-06-22T07:40:47;14.20;;;9.65;;
50219;SDS011;36110;51.536;7.562;2023-06-22T07:43:12;13.95;;;11.75;;
50219;SDS011;36110;51.536;7.562;2023-06-22T07:45:38;15.48;;;13.95;;
50219;SDS011;36110;51.536;7.562;2023-06-22T07:48:04;14.32;;;9.15;;
50219;SDS011;36110;51.536;7.562;2023-06-22T07:50:29;15.68;;;13.55;;
50219;SDS011;36110;51.536;7.562;2023-06-22T07:52:56;11.93;;;10.48;;
50219;SDS011;36110;51.536;7.562;2023-06-22T07:55:21;14.07;;;11.32;;
50219;SDS011;36110;51.536;7.562;2023-06-22T07:57:47;17.15;;;13.77;;
50219;SDS011;36110;51.536;7.562;2023-06-22T08:00:13;15.88;;;14.13;;
50219;SDS011;36110;51.536;7.562;2023-06-22T08:02:42;15.40;;;12.85;;
50219;SDS011;36110;51.536;7.562;2023-06-22T08:05:09;12.98;;;11.68;;
50219;SDS011;36110;51.536;7.562;2023-06-22T08:07:35;14.55;;;12.10;;
50219;SDS011;36110;51.536;7.562;2023-06-22T08:10:03;10.82;;;9.77;;
50219;SDS011;36110;51.536;7.562;2023-06-22T08:12:29;6.43;;;5.80;;
50219;SDS011;36110;51.536;7.562;2023-06-22T08:14:54;16.20;;;14.48;;
50219;SDS011;36110;51.536;7.562;2023-06-22T08:17:19;9.15;;;8.23;;
50219;SDS011;36110;51.536;7.562;2023-06-22T08:19:45;15.40;;;13.80;;
50219;SDS011;36110;51.536;7.562;2023-06-22T08:22:10;16.38;;;14.68;;
50219;SDS011;36110;51.536;7.562;2023-06-22T08:24:35;19.50;;;14.73;;
50219;SDS011;36110;51.536;7.562;2023-06-22T08:27:01;12.00;;;9.57;;
50219;SDS011;36110;51.536;7.562;2023-06-22T08:29:26;5.85;;;5.30;;
50219;SDS011;36110;51.536;7.562;2023-06-22T08:31:51;18.27;;;13.63;;
50219;SDS011;36110;51.536;7.562;2023-06-22T08:34:17;7.88;;;6.03;;
50219;SDS011;36110;51.536;7.562;2023-06-22T08:36:46;17.70;;;14.48;;
50219;SDS011;36110;51.536;7.562;2023-06-22T08:39:16;11.48;;;10.35;;
50219;SDS011;36110;51.536;7.562;2023-06-22T08:41:42;7.97;;;5.70;;
50219;SDS011;36110;51.536;7.562;2023-06-22T08:44:07;20.50;;;15.10;;
50219;SDS011;36110;51.536;7.562;2023-06-22T08:46:32;13.35;;;12.05;;
50219;SDS011;36110;51.536;7.562;2023-06-22T08:48:59;17.30;;;15.43;;
50219;SDS011;36110;51.536;7.562;2023-06-22T08:51:24;13.35;;;11.93;;
50219;SDS011;36110;51.536;7.562;2023-06-22T08:53:50;8.55;;;7.70;;
50219;SDS011;36110;51.536;7.562;2023-06-22T08:56:15;16.15;;;13.07;;
50219;SDS011;36110;51.536;7.562;2023-06-22T08:58:40;13.57;;;12.10;;
50219;SDS011;36110;51.536;7.562;2023-06-22T09:01:06;13.15;;;11.85;;
50219;SDS011;36110;51.536;7.562;2023-06-22T09:03:31;14.40;;;12.88;;
50219;SDS011;36110;51.536;7.562;2023-06-22T09:05:57;15.55;;;12.98;;
50219;SDS011;36110;51.536;7.562;2023-06-22T09:08:23;12.45;;;11.25;;
50219;SDS011;36110;51.536;7.562;2023-06-22T09:10:48;12.23;;;10.93;;
50219;SDS011;36110;51.536;7.562;2023-06-22T09:13:14;14.27;;;11.77;;
50219;SDS011;36110;51.536;7.562;2023-06-22T09:15:39;11.45;;;10.30;;
50219;SDS011;36110;51.536;7.562;2023-06-22T09:18:04;12.80;;;11.55;;
50219;SDS011;36110;51.536;7.562;2023-06-22T09:20:30;11.10;;;10.00;;
50219;SDS011;36110;51.536;7.562;2023-06-22T09:22:56;13.70;;;11.48;;
50219;SDS011;36110;51.536;7.562;2023-06-22T09:25:21;11.10;;;9.90;;
50219;SDS011;36110;51.536;7.562;2023-06-22T09:27:47;13.13;;;11.35;;
50219;SDS011;36110;51.536;7.562;2023-06-22T09:30:12;8.93;;;8.02;;
50219;SDS011;36110;51.536;7.562;2023-06-22T09:32:38;12.60;;;10.13;;
50219;SDS011;36110;51.536;7.562;2023-06-22T09:35:04;15.52;;;12.25;;
50219;SDS011;36110;51.536;7.562;2023-06-22T09:37:36;12.73;;;11.43;;
50219;SDS011;36110;51.536;7.562;2023-06-22T09:40:02;11.77;;;10.40;;
50219;SDS011;36110;51.536;7.562;2023-06-22T09:42:33;11.05;;;9.10;;
50219;SDS011;36110;51.536;7.562;2023-06-22T09:44:59;12.93;;;10.98;;
50219;SDS011;36110;51.536;7.562;2023-06-22T09:47:24;10.10;;;8.75;;
50219;SDS011;36110;51.536;7.562;2023-06-22T09:49:50;9.40;;;8.30;;
50219;SDS011;36110;51.536;7.562;2023-06-22T09:52:15;9.57;;;8.68;;
50219;SDS011;36110;51.536;7.562;2023-06-22T09:54:41;7.68;;;6.78;;
50219;SDS011;36110;51.536;7.562;2023-06-22T09:57:06;10.82;;;8.45;;
50219;SDS011;36110;51.536;7.562;2023-06-22T09:59:32;9.07;;;7.35;;
50219;SDS011;36110;51.536;7.562;2023-06-22T10:01:57;9.80;;;6.93;;
50219;SDS011;36110;51.536;7.562;2023-06-22T10:04:22;11.00;;;8.68;;
50219;SDS011;36110;51.536;7.562;2023-06-22T10:06:48;12.80;;;9.07;;
50219;SDS011;36110;51.536;7.562;2023-06-22T10:09:13;9.95;;;8.85;;
50219;SDS011;36110;51.536;7.562;2023-06-22T10:11:39;10.23;;;8.82;;
50219;SDS011;36110;51.536;7.562;2023-06-22T10:14:04;7.15;;;6.45;;
50219;SDS011;36110;51.536;7.562;2023-06-22T10:16:33;10.13;;;8.60;;
50219;SDS011;36110;51.536;7.562;2023-06-22T10:19:00;11.80;;;8.65;;
50219;SDS011;36110;51.536;7.562;2023-06-22T10:21:25;11.10;;;9.32;;
50219;SDS011;36110;51.536;7.562;2023-06-22T10:23:53;11.13;;;8.90;;
50219;SDS011;36110;51.536;7.562;2023-06-22T10:26:18;13.48;;;10.18;;
50219;SDS011;36110;51.536;7.562;2023-06-22T10:28:44;10.70;;;9.70;;
50219;SDS011;36110;51.536;7.562;2023-06-22T10:31:09;6.57;;;5.40;;
50219;SDS011;36110;51.536;7.562;2023-06-22T10:33:34;9.45;;;8.55;;
50219;SDS011;36110;51.536;7.562;2023-06-22T10:36:00;10.57;;;8.48;;
50219;SDS011;36110;51.536;7.562;2023-06-22T10:38:25;7.65;;;6.75;;
50219;SDS011;36110;51.536;7.562;2023-06-22T10:40:50;7.97;;;7.22;;
50219;SDS011;36110;51.536;7.562;2023-06-22T10:43:16;7.20;;;6.43;;
50219;SDS011;36110;51.536;7.562;2023-06-22T10:45:41;6.28;;;5.68;;
50219;SDS011;36110;51.536;7.562;2023-06-22T10:48:06;6.82;;;6.22;;
50219;SDS011;36110;51.536;7.562;2023-06-22T10:50:31;6.53;;;5.85;;
50219;SDS011;36110;51.536;7.562;2023-06-22T10:52:57;7.38;;;5.97;;
50219;SDS011;36110;51.536;7.562;2023-06-22T10:55:22;6.47;;;5.88;;
50219;SDS011;36110;51.536;7.562;2023-06-22T10:57:47;10.98;;;6.10;;
50219;SDS011;36110;51.536;7.562;2023-06-22T11:00:13;8.73;;;6.45;;
50219;SDS011;36110;51.536;7.562;2023-06-22T11:02:39;6.78;;;5.40;;
50219;SDS011;36110;51.536;7.562;2023-06-22T11:05:05;7.53;;;5.90;;
50219;SDS011;36110;51.536;7.562;2023-06-22T11:07:30;6.53;;;5.88;;
50219;SDS011;36110;51.536;7.562;2023-06-22T11:09:56;7.10;;;6.40;;
50219;SDS011;36110;51.536;7.562;2023-06-22T11:12:21;7.63;;;6.32;;
50219;SDS011;36110;51.536;7.562;2023-06-22T11:14:47;7.63;;;6.60;;
50219;SDS011;36110;51.536;7.562;2023-06-22T11:17:12;8.88;;;6.50;;
50219;SDS011;36110;51.536;7.562;2023-06-22T11:19:37;7.47;;;6.78;;
50219;SDS011;36110;51.536;7.562;2023-06-22T11:22:03;10.82;;;7.25;;
50219;SDS011;36110;51.536;7.562;2023-06-22T11:24:28;8.80;;;7.25;;
50219;SDS011;36110;51.536;7.562;2023-06-22T11:26:53;9.05;;;7.43;;
50219;SDS011;36110;51.536;7.562;2023-06-22T11:29:19;9.07;;;7.90;;
50219;SDS011;36110;51.536;7.562;2023-06-22T11:31:44;8.48;;;6.18;;
50219;SDS011;36110;51.536;7.562;2023-06-22T11:34:10;9.93;;;8.93;;
50219;SDS011;36110;51.536;7.562;2023-06-22T11:36:36;12.45;;;9.77;;
50219;SDS011;36110;51.536;7.562;2023-06-22T11:39:01;12.55;;;9.55;;
50219;SDS011;36110;51.536;7.562;2023-06-22T11:41:27;8.02;;;5.85;;
50219;SDS011;36110;51.536;7.562;2023-06-22T11:43:52;14.98;;;12.02;;
50219;SDS011;36110;51.536;7.562;2023-06-22T11:46:18;21.02;;;12.40;;
50219;SDS011;36110;51.536;7.562;2023-06-22T11:48:43;17.25;;;13.48;;
50219;SDS011;36110;51.536;7.562;2023-06-22T11:51:08;16.30;;;13.88;;
50219;SDS011;36110;51.536;7.562;2023-06-22T11:53:34;13.82;;;12.48;;
50219;SDS011;36110;51.536;7.562;2023-06-22T11:56:00;12.85;;;11.65;;
50219;SDS011;36110;51.536;7.562;2023-06-22T11:58:26;18.10;;;13.00;;
50219;SDS011;36110;51.536;7.562;2023-06-22T12:00:51;15.57;;;14.00;;
50219;SDS011;36110;51.536;7.562;2023-06-22T12:03:17;12.65;;;11.25;;
50219;SDS011;36110;51.536;7.562;2023-06-22T12:05:42;16.77;;;13.60;;
50219;SDS011;36110;51.536;7.562;2023-06-22T12:08:08;16.55;;;14.70;;
50219;SDS011;36110;51.536;7.562;2023-06-22T12:10:34;14.18;;;11.55;;
50219;SDS011;36110;51.536;7.562;2023-06-22T12:12:59;14.48;;;12.82;;
50219;SDS011;36110;51.536;7.562;2023-06-22T12:15:25;6.15;;;5.60;;
50219;SDS011;36110;51.536;7.562;2023-06-22T12:17:51;6.13;;;5.53;;
50219;SDS011;36110;51.536;7.562;2023-06-22T12:20:16;6.90;;;6.25;;
50219;SDS011;36110;51.536;7.562;2023-06-22T12:22:42;5.50;;;3.70;;
50219;SDS011;36110;51.536;7.562;2023-06-22T12:25:08;4.68;;;3.97;;
50219;SDS011;36110;51.536;7.562;2023-06-22T12:27:34;7.32;;;6.47;;
50219;SDS011;36110;51.536;7.562;2023-06-22T12:30:00;12.25;;;10.45;;
50219;SDS011;36110;51.536;7.562;2023-06-22T12:32:26;15.57;;;11.60;;
50219;SDS011;36110;51.536;7.562;2023-06-22T12:34:51;15.60;;;12.77;;
50219;SDS011;36110;51.536;7.562;2023-06-22T12:37:17;3.92;;;3.63;;
50219;SDS011;36110;51.536;7.562;2023-06-22T12:39:42;4.78;;;4.25;;
50219;SDS011;36110;51.536;7.562;2023-06-22T12:42:08;10.50;;;9.23;;
50219;SDS011;36110;51.536;7.562;2023-06-22T12:44:34;16.05;;;10.90;;
50219;SDS011;36110;51.536;7.562;2023-06-22T12:47:00;24.60;;;14.35;;
50219;SDS011;36110;51.536;7.562;2023-06-22T12:49:25;27.27;;;17.35;;
50219;SDS011;36110;51.536;7.562;2023-06-22T12:51:51;31.33;;;14.60;;
50219;SDS011;36110;51.536;7.562;2023-06-22T12:54:16;29.90;;;18.20;;
50219;SDS011;36110;51.536;7.562;2023-06-22T12:56:41;40.63;;;24.33;;
50219;SDS011;36110;51.536;7.562;2023-06-22T12:59:10;29.45;;;23.23;;
50219;SDS011;36110;51.536;7.562;2023-06-22T13:01:35;22.17;;;16.83;;
50219;SDS011;36110;51.536;7.562;2023-06-22T13:04:00;11.77;;;10.60;;
50219;SDS011;36110;51.536;7.562;2023-06-22T13:06:26;16.58;;;13.27;;
50219;SDS011;36110;51.536;7.562;2023-06-22T13:08:51;25.17;;;19.73;;
50219;SDS011;36110;51.536;7.562;2023-06-22T13:11:16;22.70;;;18.88;;
50219;SDS011;36110;51.536;7.562;2023-06-22T13:13:43;30.48;;;23.35;;
50219;SDS011;36110;51.536;7.562;2023-06-22T13:16:09;29.70;;;23.25;;
50219;SDS011;36110;51.536;7.562;2023-06-22T13:18:34;10.30;;;9.40;;
50219;SDS011;36110;51.536;7.562;2023-06-22T13:21:01;20.83;;;18.38;;
50219;SDS011;36110;51.536;7.562;2023-06-22T13:23:29;11.63;;;10.30;;
50219;SDS011;36110;51.536;7.562;2023-06-22T13:25:54;19.98;;;17.05;;
50219;SDS011;36110;51.536;7.562;2023-06-22T13:28:19;19.77;;;17.88;;
50219;SDS011;36110;51.536;7.562;2023-06-22T13:30:46;18.25;;;14.10;;
50219;SDS011;36110;51.536;7.562;2023-06-22T13:33:15;16.35;;;14.75;;
50219;SDS011;36110;51.536;7.562;2023-06-22T13:35:41;10.38;;;9.30;;
50219;SDS011;36110;51.536;7.562;2023-06-22T13:38:09;10.95;;;9.57;;
50219;SDS011;36110;51.536;7.562;2023-06-22T13:40:34;6.43;;;5.93;;
50219;SDS011;36110;51.536;7.562;2023-06-22T13:43:00;15.73;;;14.15;;
50219;SDS011;36110;51.536;7.562;2023-06-22T13:45:25;17.35;;;15.73;;
50219;SDS011;36110;51.536;7.562;2023-06-22T13:47:51;9.73;;;8.80;;
50219;SDS011;36110;51.536;7.562;2023-06-22T13:50:16;14.32;;;12.93;;
50219;SDS011;36110;51.536;7.562;2023-06-22T13:52:41;4.18;;;3.83;;
50219;SDS011;36110;51.536;7.562;2023-06-22T13:55:07;13.50;;;12.07;;
50219;SDS011;36110;51.536;7.562;2023-06-22T13:57:33;10.88;;;9.88;;
50219;SDS011;36110;51.536;7.562;2023-06-22T13:59:59;15.73;;;13.13;;
50219;SDS011;36110;51.536;7.562;2023-06-22T14:02:25;13.20;;;11.80;;
50219;SDS011;36110;51.536;7.562;2023-06-22T14:04:51;13.23;;;11.98;;
50219;SDS011;36110;51.536;7.562;2023-06-22T14:07:16;15.98;;;14.48;;
50219;SDS011;36110;51.536;7.562;2023-06-22T14:09:41;9.50;;;8.65;;
50219;SDS011;36110;51.536;7.562;2023-06-22T14:12:07;14.10;;;12.73;;
50219;SDS011;36110;51.536;7.562;2023-06-22T14:14:33;15.10;;;13.52;;
50219;SDS011;36110;51.536;7.562;2023-06-22T14:16:59;14.68;;;13.18;;
50219;SDS011;36110;51.536;7.562;2023-06-22T14:19:24;15.88;;;14.05;;
50219;SDS011;36110;51.536;7.562;2023-06-22T14:21:50;15.52;;;14.13;;
50219;SDS011;36110;51.536;7.562;2023-06-22T14:24:15;15.93;;;14.20;;
50219;SDS011;36110;51.536;7.562;2023-06-22T14:26:40;13.48;;;12.18;;
50219;SDS011;36110;51.536;7.562;2023-06-22T14:29:06;10.45;;;9.48;;
50219;SDS011;36110;51.536;7.562;2023-06-22T14:31:31;15.80;;;13.02;;
50219;SDS011;36110;51.536;7.562;2023-06-22T14:33:57;15.68;;;14.07;;
50219;SDS011;36110;51.536;7.562;2023-06-22T14:36:22;7.95;;;6.70;;